sensor_id;sensor_type;location;lat;lon;timestamp;temperature;humidity
22065;DHT22;11197;53.110;8.468;2023-01-26T00:01:10;0.30;99.90
22065;DHT22;11197;53.110;8.468;2023-01-26T00:03:36;0.20;99.90
22065;DHT22;11197;53.110;8.468;2023-01-26T00:06:04;0.30;99.90
22065;DHT22;11197;53.110;8.468;2023-01-26T00:08:34;0.30;99.90
22065;DHT22;11197;53.110;8.468;2023-01-26T00:11:05;0.30;99.90
22065;DHT22;11197;53.110;8.468;2023-01-26T00:13:32;0.30;99.90
22065;DHT22;11197;53.110;8.468;2023-01-26T00:15:58;0.30;99.90
22065;DHT22;11197;53.110;8.468;2023-01-26T00:18:24;0.30;99.90
22065;DHT22;11197;53.110;8.468;2023-01-26T00:21:01;0.30;99.90
22065;DHT22;11197;53.110;8.468;2023-01-26T00:23:28;0.30;99.90
22065;DHT22;11197;53.110;8.468;2023-01-26T00:25:54;0.30;99.90
22065;DHT22;11197;53.110;8.468;2023-01-26T00:28:21;0.30;99.90
22065;DHT22;11197;53.110;8.468;2023-01-26T00:30:47;0.30;99.90
22065;DHT22;11197;53.110;8.468;2023-01-26T00:33:13;0.20;99.90
22065;DHT22;11197;53.110;8.468;2023-01-26T00:35:40;0.20;99.90
22065;DHT22;11197;53.110;8.468;2023-01-26T00:38:11;0.10;99.90
22065;DHT22;11197;53.110;8.468;2023-01-26T00:40:38;0.20;99.90
22065;DHT22;11197;53.110;8.468;2023-01-26T00:43:05;0.20;99.90
22065;DHT22;11197;53.110;8.468;2023-01-26T00:45:31;0.20;99.90
22065;DHT22;11197;53.110;8.468;2023-01-26T00:47:58;0.20;99.90
22065;DHT22;11197;53.110;8.468;2023-01-26T00:50:25;0.20;99.90
22065;DHT22;11197;53.110;8.468;2023-01-26T00:52:51;0.20;99.90
22065;DHT22;11197;53.110;8.468;2023-01-26T00:55:18;0.20;99.90
22065;DHT22;11197;53.110;8.468;2023-01-26T00:57:44;0.20;99.90
22065;DHT22;11197;53.110;8.468;2023-01-26T01:00:11;0.20;99.90
22065;DHT22;11197;53.110;8.468;2023-01-26T01:02:46;0.20;99.90
22065;DHT22;11197;53.110;8.468;2023-01-26T01:05:20;0.20;99.90
22065;DHT22;11197;53.110;8.468;2023-01-26T01:07:46;0.20;99.90
22065;DHT22;11197;53.110;8.468;2023-01-26T01:10:14;0.20;99.90
22065;DHT22;11197;53.110;8.468;2023-01-26T01:12:40;0.20;99.90
22065;DHT22;11197;53.110;8.468;2023-01-26T01:15:07;0.30;99.90
22065;DHT22;11197;53.110;8.468;2023-01-26T01:17:33;0.20;99.90
22065;DHT22;11197;53.110;8.468;2023-01-26T01:20:02;0.30;99.90
22065;DHT22;11197;53.110;8.468;2023-01-26T01:22:31;0.30;99.90
22065;DHT22;11197;53.110;8.468;2023-01-26T01:24:57;0.30;99.90
22065;DHT22;11197;53.110;8.468;2023-01-26T01:27:24;0.30;99.90
22065;DHT22;11197;53.110;8.468;2023-01-26T01:29:50;0.30;99.90
22065;DHT22;11197;53.110;8.468;2023-01-26T01:32:17;0.30;99.90
22065;DHT22;11197;53.110;8.468;2023-01-26T01:34:48;0.30;99.90
22065;DHT22;11197;53.110;8.468;2023-01-26T01:37:15;0.30;99.90
22065;DHT22;11197;53.110;8.468;2023-01-26T01:39:45;0.20;99.90
22065;DHT22;11197;53.110;8.468;2023-01-26T01:42:11;0.20;99.90
22065;DHT22;11197;53.110;8.468;2023-01-26T01:44:37;0.20;99.90
22065;DHT22;11197;53.110;8.468;2023-01-26T01:47:10;0.30;99.90
22065;DHT22;11197;53.110;8.468;2023-01-26T01:49:46;0.20;99.90
22065;DHT22;11197;53.110;8.468;2023-01-26T01:52:19;0.20;99.90
22065;DHT22;11197;53.110;8.468;2023-01-26T01:55:09;0.20;99.90
22065;DHT22;11197;53.110;8.468;2023-01-26T01:57:43;0.30;99.90
22065;DHT22;11197;53.110;8.468;2023-01-26T02:00:17;0.30;99.90
22065;DHT22;11197;53.110;8.468;2023-01-26T02:02:53;0.30;99.90
22065;DHT22;11197;53.110;8.468;2023-01-26T02:08:30;0.40;99.90
22065;DHT22;11197;53.110;8.468;2023-01-26T02:11:01;0.40;99.90
22065;DHT22;11197;53.110;8.468;2023-01-26T02:13:30;0.40;99.90
22065;DHT22;11197;53.110;8.468;2023-01-26T02:15:58;0.40;99.90
22065;DHT22;11197;53.110;8.468;2023-01-26T02:18:24;0.40;99.90
22065;DHT22;11197;53.110;8.468;2023-01-26T02:21:02;0.40;99.90
22065;DHT22;11197;53.110;8.468;2023-01-26T02:26:19;0.40;99.90
22065;DHT22;11197;53.110;8.468;2023-01-26T02:28:46;0.40;99.90
22065;DHT22;11197;53.110;8.468;2023-01-26T02:31:13;0.40;99.90
22065;DHT22;11197;53.110;8.468;2023-01-26T02:33:40;0.40;99.90
22065;DHT22;11197;53.110;8.468;2023-01-26T02:36:09;0.40;99.90
22065;DHT22;11197;53.110;8.468;2023-01-26T02:38:54;0.40;99.90
22065;DHT22;11197;53.110;8.468;2023-01-26T02:41:21;0.40;99.90
22065;DHT22;11197;53.110;8.468;2023-01-26T02:44:08;0.50;99.90
22065;DHT22;11197;53.110;8.468;2023-01-26T02:46:34;0.50;99.90
22065;DHT22;11197;53.110;8.468;2023-01-26T02:49:01;0.50;99.90
22065;DHT22;11197;53.110;8.468;2023-01-26T02:51:46;0.50;99.90
22065;DHT22;11197;53.110;8.468;2023-01-26T02:54:13;0.50;99.90
22065;DHT22;11197;53.110;8.468;2023-01-26T02:57:00;0.50;99.90
22065;DHT22;11197;53.110;8.468;2023-01-26T02:59:26;0.50;99.90
22065;DHT22;11197;53.110;8.468;2023-01-26T03:01:54;0.50;99.90
22065;DHT22;11197;53.110;8.468;2023-01-26T03:04:21;0.50;99.90
22065;DHT22;11197;53.110;8.468;2023-01-26T03:06:47;0.50;99.90
22065;DHT22;11197;53.110;8.468;2023-01-26T03:09:13;0.50;99.90
22065;DHT22;11197;53.110;8.468;2023-01-26T03:11:40;0.50;99.90
22065;DHT22;11197;53.110;8.468;2023-01-26T03:14:10;0.50;99.90
22065;DHT22;11197;53.110;8.468;2023-01-26T03:16:37;0.50;99.90
22065;DHT22;11197;53.110;8.468;2023-01-26T03:19:04;0.50;99.90
22065;DHT22;11197;53.110;8.468;2023-01-26T03:21:49;0.50;99.90
22065;DHT22;11197;53.110;8.468;2023-01-26T03:24:34;0.50;99.90
22065;DHT22;11197;53.110;8.468;2023-01-26T03:27:19;0.50;99.90
22065;DHT22;11197;53.110;8.468;2023-01-26T03:29:55;0.50;99.90
22065;DHT22;11197;53.110;8.468;2023-01-26T03:32:23;0.50;99.90
22065;DHT22;11197;53.110;8.468;2023-01-26T03:34:49;0.50;99.90
22065;DHT22;11197;53.110;8.468;2023-01-26T03:37:16;0.50;99.90
22065;DHT22;11197;53.110;8.468;2023-01-26T03:40:08;0.50;99.90
22065;DHT22;11197;53.110;8.468;2023-01-26T03:42:55;0.50;99.90
22065;DHT22;11197;53.110;8.468;2023-01-26T03:45:40;0.60;99.90
22065;DHT22;11197;53.110;8.468;2023-01-26T03:48:30;0.50;99.90
22065;DHT22;11197;53.110;8.468;2023-01-26T03:51:18;0.50;99.90
22065;DHT22;11197;53.110;8.468;2023-01-26T03:54:02;0.60;99.90
22065;DHT22;11197;53.110;8.468;2023-01-26T03:56:47;0.60;99.90
22065;DHT22;11197;53.110;8.468;2023-01-26T03:59:16;0.60;99.90
22065;DHT22;11197;53.110;8.468;2023-01-26T04:01:47;0.60;99.90
22065;DHT22;11197;53.110;8.468;2023-01-26T04:04:33;0.50;99.90
22065;DHT22;11197;53.110;8.468;2023-01-26T04:07:22;0.60;99.90
22065;DHT22;11197;53.110;8.468;2023-01-26T04:10:07;0.60;99.90
22065;DHT22;11197;53.110;8.468;2023-01-26T04:12:33;0.60;99.90
22065;DHT22;11197;53.110;8.468;2023-01-26T04:15:12;0.60;99.90
22065;DHT22;11197;53.110;8.468;2023-01-26T04:17:56;0.60;99.90
22065;DHT22;11197;53.110;8.468;2023-01-26T04:20:40;0.60;99.90
22065;DHT22;11197;53.110;8.468;2023-01-26T04:23:26;0.60;99.90
22065;DHT22;11197;53.110;8.468;2023-01-26T04:25:52;0.60;99.90
22065;DHT22;11197;53.110;8.468;2023-01-26T04:28:18;0.60;99.90
22065;DHT22;11197;53.110;8.468;2023-01-26T04:30:46;0.60;99.90
22065;DHT22;11197;53.110;8.468;2023-01-26T04:33:12;0.60;99.90
22065;DHT22;11197;53.110;8.468;2023-01-26T04:35:42;0.70;99.90
22065;DHT22;11197;53.110;8.468;2023-01-26T04:38:10;0.70;99.90
22065;DHT22;11197;53.110;8.468;2023-01-26T04:40:39;0.70;99.90
22065;DHT22;11197;53.110;8.468;2023-01-26T04:43:05;0.60;99.90
22065;DHT22;11197;53.110;8.468;2023-01-26T04:45:31;0.70;99.90
22065;DHT22;11197;53.110;8.468;2023-01-26T04:47:57;0.70;99.90
22065;DHT22;11197;53.110;8.468;2023-01-26T04:50:25;0.70;99.90
22065;DHT22;11197;53.110;8.468;2023-01-26T04:52:52;0.70;99.90
22065;DHT22;11197;53.110;8.468;2023-01-26T04:55:18;0.70;99.90
22065;DHT22;11197;53.110;8.468;2023-01-26T04:57:45;0.70;99.90
22065;DHT22;11197;53.110;8.468;2023-01-26T05:00:11;0.70;99.90
22065;DHT22;11197;53.110;8.468;2023-01-26T05:02:39;0.70;99.90
22065;DHT22;11197;53.110;8.468;2023-01-26T05:05:07;0.70;99.90
22065;DHT22;11197;53.110;8.468;2023-01-26T05:07:33;0.70;99.90
22065;DHT22;11197;53.110;8.468;2023-01-26T05:10:01;0.70;99.90
22065;DHT22;11197;53.110;8.468;2023-01-26T05:12:42;0.70;99.90
22065;DHT22;11197;53.110;8.468;2023-01-26T05:15:23;0.70;99.90
22065;DHT22;11197;53.110;8.468;2023-01-26T05:18:13;0.70;99.90
22065;DHT22;11197;53.110;8.468;2023-01-26T05:21:02;0.80;99.90
22065;DHT22;11197;53.110;8.468;2023-01-26T05:23:35;0.80;99.90
22065;DHT22;11197;53.110;8.468;2023-01-26T05:26:26;0.80;99.90
22065;DHT22;11197;53.110;8.468;2023-01-26T05:28:57;0.80;99.90
22065;DHT22;11197;53.110;8.468;2023-01-26T05:31:24;0.80;99.90
22065;DHT22;11197;53.110;8.468;2023-01-26T05:33:52;0.80;99.90
22065;DHT22;11197;53.110;8.468;2023-01-26T05:36:21;0.80;99.90
22065;DHT22;11197;53.110;8.468;2023-01-26T05:38:47;0.80;99.90
22065;DHT22;11197;53.110;8.468;2023-01-26T05:41:16;0.80;99.90
22065;DHT22;11197;53.110;8.468;2023-01-26T05:44:01;0.80;99.90
22065;DHT22;11197;53.110;8.468;2023-01-26T05:46:42;0.80;99.90
22065;DHT22;11197;53.110;8.468;2023-01-26T05:49:08;0.80;99.90
22065;DHT22;11197;53.110;8.468;2023-01-26T05:51:34;0.90;99.90
22065;DHT22;11197;53.110;8.468;2023-01-26T05:54:01;0.90;99.90
22065;DHT22;11197;53.110;8.468;2023-01-26T05:56:27;0.90;99.90
22065;DHT22;11197;53.110;8.468;2023-01-26T05:58:58;0.90;99.90
22065;DHT22;11197;53.110;8.468;2023-01-26T06:01:28;0.90;99.90
22065;DHT22;11197;53.110;8.468;2023-01-26T06:03:58;0.90;99.90
22065;DHT22;11197;53.110;8.468;2023-01-26T06:06:29;0.90;99.90
22065;DHT22;11197;53.110;8.468;2023-01-26T06:09:04;0.90;99.90
22065;DHT22;11197;53.110;8.468;2023-01-26T06:11:33;0.90;99.90
22065;DHT22;11197;53.110;8.468;2023-01-26T06:14:20;0.90;99.90
22065;DHT22;11197;53.110;8.468;2023-01-26T06:16:46;0.90;99.90
22065;DHT22;11197;53.110;8.468;2023-01-26T06:19:13;0.90;99.90
22065;DHT22;11197;53.110;8.468;2023-01-26T06:21:40;0.90;99.90
22065;DHT22;11197;53.110;8.468;2023-01-26T06:24:06;0.90;99.90
22065;DHT22;11197;53.110;8.468;2023-01-26T06:26:33;0.90;99.90
22065;DHT22;11197;53.110;8.468;2023-01-26T06:28:59;0.90;99.90
22065;DHT22;11197;53.110;8.468;2023-01-26T06:31:28;0.90;99.90
22065;DHT22;11197;53.110;8.468;2023-01-26T06:33:57;0.90;99.90
22065;DHT22;11197;53.110;8.468;2023-01-26T06:36:24;1.00;99.90
22065;DHT22;11197;53.110;8.468;2023-01-26T06:38:51;1.10;99.90
22065;DHT22;11197;53.110;8.468;2023-01-26T06:41:18;1.10;99.90
22065;DHT22;11197;53.110;8.468;2023-01-26T06:43:46;1.20;99.90
22065;DHT22;11197;53.110;8.468;2023-01-26T06:50:00;1.20;99.90
22065;DHT22;11197;53.110;8.468;2023-01-26T06:52:31;1.20;99.90
22065;DHT22;11197;53.110;8.468;2023-01-26T06:59:07;1.10;99.90
22065;DHT22;11197;53.110;8.468;2023-01-26T07:05:37;1.10;99.90
22065;DHT22;11197;53.110;8.468;2023-01-26T07:08:03;1.10;99.90
22065;DHT22;11197;53.110;8.468;2023-01-26T07:10:31;1.10;99.90
22065;DHT22;11197;53.110;8.468;2023-01-26T07:12:57;1.10;99.90
22065;DHT22;11197;53.110;8.468;2023-01-26T07:15:23;1.10;99.90
22065;DHT22;11197;53.110;8.468;2023-01-26T07:21:36;1.20;99.90
22065;DHT22;11197;53.110;8.468;2023-01-26T07:24:03;1.20;99.90
22065;DHT22;11197;53.110;8.468;2023-01-26T07:26:29;1.20;99.90
22065;DHT22;11197;53.110;8.468;2023-01-26T07:28:55;1.20;99.90
22065;DHT22;11197;53.110;8.468;2023-01-26T07:31:21;1.20;99.90
22065;DHT22;11197;53.110;8.468;2023-01-26T07:37:34;1.10;99.90
22065;DHT22;11197;53.110;8.468;2023-01-26T07:43:47;1.10;99.90
22065;DHT22;11197;53.110;8.468;2023-01-26T07:46:15;1.10;99.90
22065;DHT22;11197;53.110;8.468;2023-01-26T07:52:28;1.10;99.90
22065;DHT22;11197;53.110;8.468;2023-01-26T07:58:41;1.10;99.90
22065;DHT22;11197;53.110;8.468;2023-01-26T08:01:12;1.10;99.90
22065;DHT22;11197;53.110;8.468;2023-01-26T08:03:39;1.20;99.90
22065;DHT22;11197;53.110;8.468;2023-01-26T08:06:05;1.10;99.90
22065;DHT22;11197;53.110;8.468;2023-01-26T08:08:32;1.10;99.90
22065;DHT22;11197;53.110;8.468;2023-01-26T08:14:46;1.20;99.90
22065;DHT22;11197;53.110;8.468;2023-01-26T08:17:12;1.20;99.90
22065;DHT22;11197;53.110;8.468;2023-01-26T08:19:38;1.20;99.90
22065;DHT22;11197;53.110;8.468;2023-01-26T08:22:04;1.20;99.90
22065;DHT22;11197;53.110;8.468;2023-01-26T08:24:30;1.20;99.90
22065;DHT22;11197;53.110;8.468;2023-01-26T08:26:56;1.20;99.90
22065;DHT22;11197;53.110;8.468;2023-01-26T08:29:22;1.20;99.90
22065;DHT22;11197;53.110;8.468;2023-01-26T08:31:48;1.30;99.90
22065;DHT22;11197;53.110;8.468;2023-01-26T08:34:14;1.30;99.90
22065;DHT22;11197;53.110;8.468;2023-01-26T08:36:40;1.30;99.90
22065;DHT22;11197;53.110;8.468;2023-01-26T08:39:06;1.30;99.90
22065;DHT22;11197;53.110;8.468;2023-01-26T08:41:32;1.30;99.90
22065;DHT22;11197;53.110;8.468;2023-01-26T08:47:49;1.30;99.90
22065;DHT22;11197;53.110;8.468;2023-01-26T08:54:07;1.30;99.90
22065;DHT22;11197;53.110;8.468;2023-01-26T09:00:21;1.40;99.90
22065;DHT22;11197;53.110;8.468;2023-01-26T09:06:35;1.40;99.90
22065;DHT22;11197;53.110;8.468;2023-01-26T09:09:01;1.40;99.90
22065;DHT22;11197;53.110;8.468;2023-01-26T09:11:27;1.40;99.90
22065;DHT22;11197;53.110;8.468;2023-01-26T09:13:53;1.40;99.90
22065;DHT22;11197;53.110;8.468;2023-01-26T09:16:22;1.40;99.90
22065;DHT22;11197;53.110;8.468;2023-01-26T09:18:52;1.40;99.90
22065;DHT22;11197;53.110;8.468;2023-01-26T09:25:06;1.40;99.90
22065;DHT22;11197;53.110;8.468;2023-01-26T09:27:32;1.40;99.90
22065;DHT22;11197;53.110;8.468;2023-01-26T09:33:47;1.50;99.90
22065;DHT22;11197;53.110;8.468;2023-01-26T09:36:13;1.50;99.90
22065;DHT22;11197;53.110;8.468;2023-01-26T09:38:42;1.50;99.90
22065;DHT22;11197;53.110;8.468;2023-01-26T09:48:26;1.50;99.90
22065;DHT22;11197;53.110;8.468;2023-01-26T09:54:51;1.50;99.90
22065;DHT22;11197;53.110;8.468;2023-01-26T09:57:31;1.60;99.90
22065;DHT22;11197;53.110;8.468;2023-01-26T10:00:05;1.60;99.90
22065;DHT22;11197;53.110;8.468;2023-01-26T10:09:30;1.70;99.90
22065;DHT22;11197;53.110;8.468;2023-01-26T10:15:55;1.70;99.90
22065;DHT22;11197;53.110;8.468;2023-01-26T10:18:36;1.70;99.90
22065;DHT22;11197;53.110;8.468;2023-01-26T10:24:52;1.70;99.90
22065;DHT22;11197;53.110;8.468;2023-01-26T10:27:18;1.80;99.90
22065;DHT22;11197;53.110;8.468;2023-01-26T10:33:36;1.80;99.90
22065;DHT22;11197;53.110;8.468;2023-01-26T10:36:04;1.80;99.90
22065;DHT22;11197;53.110;8.468;2023-01-26T10:42:26;1.90;99.90
22065;DHT22;11197;53.110;8.468;2023-01-26T10:44:53;2.00;99.90
22065;DHT22;11197;53.110;8.468;2023-01-26T10:47:19;2.10;99.90
22065;DHT22;11197;53.110;8.468;2023-01-26T10:49:48;2.10;99.90
22065;DHT22;11197;53.110;8.468;2023-01-26T10:52:18;2.10;99.90
22065;DHT22;11197;53.110;8.468;2023-01-26T10:54:47;2.20;99.90
22065;DHT22;11197;53.110;8.468;2023-01-26T10:57:26;2.20;99.90
22065;DHT22;11197;53.110;8.468;2023-01-26T10:59:56;2.30;99.90
22065;DHT22;11197;53.110;8.468;2023-01-26T11:02:24;2.30;99.90
22065;DHT22;11197;53.110;8.468;2023-01-26T11:07:35;2.40;99.90
22065;DHT22;11197;53.110;8.468;2023-01-26T11:10:24;2.40;99.90
22065;DHT22;11197;53.110;8.468;2023-01-26T11:13:26;2.50;99.90
22065;DHT22;11197;53.110;8.468;2023-01-26T11:18:52;2.70;99.90
22065;DHT22;11197;53.110;8.468;2023-01-26T11:21:27;2.70;99.90
22065;DHT22;11197;53.110;8.468;2023-01-26T11:24:02;2.80;99.90
22065;DHT22;11197;53.110;8.468;2023-01-26T11:29:40;2.90;99.90
22065;DHT22;11197;53.110;8.468;2023-01-26T11:46:23;3.00;99.90
22065;DHT22;11197;53.110;8.468;2023-01-26T11:49:07;3.00;99.90
22065;DHT22;11197;53.110;8.468;2023-01-26T11:59:52;3.20;99.90
22065;DHT22;11197;53.110;8.468;2023-01-26T12:04:58;3.30;99.90
22065;DHT22;11197;53.110;8.468;2023-01-26T12:07:30;3.30;99.90
22065;DHT22;11197;53.110;8.468;2023-01-26T12:09:59;3.40;99.90
22065;DHT22;11197;53.110;8.468;2023-01-26T12:12:40;3.40;99.90
22065;DHT22;11197;53.110;8.468;2023-01-26T12:15:12;3.50;99.90
22065;DHT22;11197;53.110;8.468;2023-01-26T12:20:41;3.70;99.90
22065;DHT22;11197;53.110;8.468;2023-01-26T12:26:12;3.80;99.90
22065;DHT22;11197;53.110;8.468;2023-01-26T12:29:14;3.80;99.90
22065;DHT22;11197;53.110;8.468;2023-01-26T12:32:04;3.90;99.90
22065;DHT22;11197;53.110;8.468;2023-01-26T12:34:32;3.90;99.90
22065;DHT22;11197;53.110;8.468;2023-01-26T12:43:09;4.10;99.90
22065;DHT22;11197;53.110;8.468;2023-01-26T12:45:41;4.20;99.90
22065;DHT22;11197;53.110;8.468;2023-01-26T12:48:21;4.20;99.90
22065;DHT22;11197;53.110;8.468;2023-01-26T12:50:59;4.30;99.90
22065;DHT22;11197;53.110;8.468;2023-01-26T12:53:39;4.40;99.90
22065;DHT22;11197;53.110;8.468;2023-01-26T12:58:38;4.50;99.90
22065;DHT22;11197;53.110;8.468;2023-01-26T13:01:14;4.50;99.90
22065;DHT22;11197;53.110;8.468;2023-01-26T13:03:55;4.70;99.90
22065;DHT22;11197;53.110;8.468;2023-01-26T13:06:27;4.70;99.90
22065;DHT22;11197;53.110;8.468;2023-01-26T13:11:42;4.80;99.90
22065;DHT22;11197;53.110;8.468;2023-01-26T13:27:34;5.30;99.90
22065;DHT22;11197;53.110;8.468;2023-01-26T13:35:38;5.30;99.90
22065;DHT22;11197;53.110;8.468;2023-01-26T13:38:18;5.30;99.90
22065;DHT22;11197;53.110;8.468;2023-01-26T13:40:47;5.30;99.90
22065;DHT22;11197;53.110;8.468;2023-01-26T13:43:41;5.40;99.90
22065;DHT22;11197;53.110;8.468;2023-01-26T13:48:57;5.50;99.90
22065;DHT22;11197;53.110;8.468;2023-01-26T13:51:23;5.50;99.90
22065;DHT22;11197;53.110;8.468;2023-01-26T13:54:02;5.50;99.90
22065;DHT22;11197;53.110;8.468;2023-01-26T13:56:32;5.60;99.90
22065;DHT22;11197;53.110;8.468;2023-01-26T13:59:11;5.60;99.90
22065;DHT22;11197;53.110;8.468;2023-01-26T14:01:46;5.60;99.90
22065;DHT22;11197;53.110;8.468;2023-01-26T14:04:18;5.60;99.90
22065;DHT22;11197;53.110;8.468;2023-01-26T14:07:16;5.60;99.90
22065;DHT22;11197;53.110;8.468;2023-01-26T14:09:49;5.60;99.90
22065;DHT22;11197;53.110;8.468;2023-01-26T14:12:41;5.60;99.90
22065;DHT22;11197;53.110;8.468;2023-01-26T14:17:49;5.60;99.90
22065;DHT22;11197;53.110;8.468;2023-01-26T14:20:30;5.60;99.90
22065;DHT22;11197;53.110;8.468;2023-01-26T14:25:28;5.70;99.90
22065;DHT22;11197;53.110;8.468;2023-01-26T14:27:54;5.70;99.90
22065;DHT22;11197;53.110;8.468;2023-01-26T14:30:28;5.70;99.90
22065;DHT22;11197;53.110;8.468;2023-01-26T14:33:15;5.70;99.90
22065;DHT22;11197;53.110;8.468;2023-01-26T14:35:53;5.70;99.90
22065;DHT22;11197;53.110;8.468;2023-01-26T14:38:20;5.70;99.90
22065;DHT22;11197;53.110;8.468;2023-01-26T14:40:48;5.60;99.90
22065;DHT22;11197;53.110;8.468;2023-01-26T14:43:15;5.70;99.90
22065;DHT22;11197;53.110;8.468;2023-01-26T14:48:19;5.70;99.90
22065;DHT22;11197;53.110;8.468;2023-01-26T14:50:47;5.70;99.90
22065;DHT22;11197;53.110;8.468;2023-01-26T14:53:23;5.70;99.90
22065;DHT22;11197;53.110;8.468;2023-01-26T14:55:51;5.80;99.90
22065;DHT22;11197;53.110;8.468;2023-01-26T14:58:28;5.80;99.90
22065;DHT22;11197;53.110;8.468;2023-01-26T15:00:57;5.80;99.90
22065;DHT22;11197;53.110;8.468;2023-01-26T15:03:36;5.80;99.90
22065;DHT22;11197;53.110;8.468;2023-01-26T15:06:15;5.80;99.90
22065;DHT22;11197;53.110;8.468;2023-01-26T15:08:53;5.80;99.90
22065;DHT22;11197;53.110;8.468;2023-01-26T15:11:36;5.70;99.90
22065;DHT22;11197;53.110;8.468;2023-01-26T15:17:39;5.70;99.90
22065;DHT22;11197;53.110;8.468;2023-01-26T15:22:51;5.70;99.90
22065;DHT22;11197;53.110;8.468;2023-01-26T15:25:21;5.70;99.90
22065;DHT22;11197;53.110;8.468;2023-01-26T15:27:50;5.70;99.90
22065;DHT22;11197;53.110;8.468;2023-01-26T15:30:20;5.70;99.90
22065;DHT22;11197;53.110;8.468;2023-01-26T15:32:47;5.70;99.90
22065;DHT22;11197;53.110;8.468;2023-01-26T15:35:33;5.70;99.90
22065;DHT22;11197;53.110;8.468;2023-01-26T15:38:10;5.70;99.90
22065;DHT22;11197;53.110;8.468;2023-01-26T15:40:36;5.70;99.90
22065;DHT22;11197;53.110;8.468;2023-01-26T15:45:36;5.70;99.90
22065;DHT22;11197;53.110;8.468;2023-01-26T15:48:04;5.70;99.90
22065;DHT22;11197;53.110;8.468;2023-01-26T15:50:30;5.70;99.90
22065;DHT22;11197;53.110;8.468;2023-01-26T15:52:57;5.70;99.90
22065;DHT22;11197;53.110;8.468;2023-01-26T15:55:27;5.70;99.90
22065;DHT22;11197;53.110;8.468;2023-01-26T15:57:55;5.60;99.90
22065;DHT22;11197;53.110;8.468;2023-01-26T16:00:21;5.60;99.90
22065;DHT22;11197;53.110;8.468;2023-01-26T16:02:48;5.60;99.90
22065;DHT22;11197;53.110;8.468;2023-01-26T16:05:20;5.50;99.90
22065;DHT22;11197;53.110;8.468;2023-01-26T16:07:46;5.60;99.90
22065;DHT22;11197;53.110;8.468;2023-01-26T16:10:18;5.50;99.90
22065;DHT22;11197;53.110;8.468;2023-01-26T16:12:47;5.50;99.90
22065;DHT22;11197;53.110;8.468;2023-01-26T16:18:05;5.50;99.90
22065;DHT22;11197;53.110;8.468;2023-01-26T16:20:31;5.50;99.90
22065;DHT22;11197;53.110;8.468;2023-01-26T16:22:57;5.50;99.90
22065;DHT22;11197;53.110;8.468;2023-01-26T16:25:26;5.40;99.90
22065;DHT22;11197;53.110;8.468;2023-01-26T16:27:53;5.40;99.90
22065;DHT22;11197;53.110;8.468;2023-01-26T16:30:23;5.40;99.90
22065;DHT22;11197;53.110;8.468;2023-01-26T16:32:51;5.40;99.90
22065;DHT22;11197;53.110;8.468;2023-01-26T16:35:20;5.40;99.90
22065;DHT22;11197;53.110;8.468;2023-01-26T16:37:47;5.30;99.90
22065;DHT22;11197;53.110;8.468;2023-01-26T16:40:15;5.30;99.90
22065;DHT22;11197;53.110;8.468;2023-01-26T16:42:48;5.30;99.90
22065;DHT22;11197;53.110;8.468;2023-01-26T16:45:23;5.30;99.90
22065;DHT22;11197;53.110;8.468;2023-01-26T16:47:53;5.30;99.90
22065;DHT22;11197;53.110;8.468;2023-01-26T16:50:25;5.30;99.90
22065;DHT22;11197;53.110;8.468;2023-01-26T16:52:51;5.30;99.90
22065;DHT22;11197;53.110;8.468;2023-01-26T16:55:18;5.30;99.90
22065;DHT22;11197;53.110;8.468;2023-01-26T16:57:46;5.30;99.90
22065;DHT22;11197;53.110;8.468;2023-01-26T17:00:20;5.20;99.90
22065;DHT22;11197;53.110;8.468;2023-01-26T17:02:49;5.20;99.90
22065;DHT22;11197;53.110;8.468;2023-01-26T17:05:17;5.20;99.90
22065;DHT22;11197;53.110;8.468;2023-01-26T17:07:44;5.20;99.90
22065;DHT22;11197;53.110;8.468;2023-01-26T17:10:13;5.20;99.90
22065;DHT22;11197;53.110;8.468;2023-01-26T17:12:39;5.20;99.90
22065;DHT22;11197;53.110;8.468;2023-01-26T17:15:08;5.20;99.90
22065;DHT22;11197;53.110;8.468;2023-01-26T17:17:34;5.20;99.90
22065;DHT22;11197;53.110;8.468;2023-01-26T17:20:01;5.20;99.90
22065;DHT22;11197;53.110;8.468;2023-01-26T17:22:28;5.20;99.90
22065;DHT22;11197;53.110;8.468;2023-01-26T17:24:58;5.20;99.90
22065;DHT22;11197;53.110;8.468;2023-01-26T17:27:24;5.20;99.90
22065;DHT22;11197;53.110;8.468;2023-01-26T17:29:50;5.10;99.90
22065;DHT22;11197;53.110;8.468;2023-01-26T17:32:17;5.20;99.90
22065;DHT22;11197;53.110;8.468;2023-01-26T17:34:53;5.20;99.90
22065;DHT22;11197;53.110;8.468;2023-01-26T17:37:21;5.30;99.90
22065;DHT22;11197;53.110;8.468;2023-01-26T17:39:47;5.40;99.90
22065;DHT22;11197;53.110;8.468;2023-01-26T17:42:13;5.40;99.90
22065;DHT22;11197;53.110;8.468;2023-01-26T17:44:40;5.30;99.90
22065;DHT22;11197;53.110;8.468;2023-01-26T17:47:07;5.40;99.90
22065;DHT22;11197;53.110;8.468;2023-01-26T17:49:37;5.30;99.90
22065;DHT22;11197;53.110;8.468;2023-01-26T17:52:04;5.30;99.90
22065;DHT22;11197;53.110;8.468;2023-01-26T17:54:31;5.30;99.90
22065;DHT22;11197;53.110;8.468;2023-01-26T17:56:57;5.30;99.90
22065;DHT22;11197;53.110;8.468;2023-01-26T17:59:23;5.20;99.90
22065;DHT22;11197;53.110;8.468;2023-01-26T18:01:50;5.20;99.90
22065;DHT22;11197;53.110;8.468;2023-01-26T18:04:17;5.20;99.90
22065;DHT22;11197;53.110;8.468;2023-01-26T18:06:43;5.20;99.90
22065;DHT22;11197;53.110;8.468;2023-01-26T18:09:10;5.10;99.90
22065;DHT22;11197;53.110;8.468;2023-01-26T18:11:37;5.10;99.90
22065;DHT22;11197;53.110;8.468;2023-01-26T18:14:03;5.10;99.90
22065;DHT22;11197;53.110;8.468;2023-01-26T18:16:30;5.10;99.90
22065;DHT22;11197;53.110;8.468;2023-01-26T18:18:58;5.10;99.90
22065;DHT22;11197;53.110;8.468;2023-01-26T18:21:30;5.10;99.90
22065;DHT22;11197;53.110;8.468;2023-01-26T18:24:01;5.10;99.90
22065;DHT22;11197;53.110;8.468;2023-01-26T18:26:31;5.10;99.90
22065;DHT22;11197;53.110;8.468;2023-01-26T18:28:57;5.10;99.90
22065;DHT22;11197;53.110;8.468;2023-01-26T18:31:27;5.00;99.90
22065;DHT22;11197;53.110;8.468;2023-01-26T18:33:55;5.10;99.90
22065;DHT22;11197;53.110;8.468;2023-01-26T18:36:21;5.00;99.90
22065;DHT22;11197;53.110;8.468;2023-01-26T18:38:53;5.00;99.90
22065;DHT22;11197;53.110;8.468;2023-01-26T18:41:22;5.00;99.90
22065;DHT22;11197;53.110;8.468;2023-01-26T18:43:50;5.00;99.90
22065;DHT22;11197;53.110;8.468;2023-01-26T18:46:16;5.00;99.90
22065;DHT22;11197;53.110;8.468;2023-01-26T18:48:42;5.00;99.90
22065;DHT22;11197;53.110;8.468;2023-01-26T18:51:09;5.00;99.90
22065;DHT22;11197;53.110;8.468;2023-01-26T18:53:36;5.00;99.90
22065;DHT22;11197;53.110;8.468;2023-01-26T18:56:10;5.00;99.90
22065;DHT22;11197;53.110;8.468;2023-01-26T18:58:37;4.90;99.90
22065;DHT22;11197;53.110;8.468;2023-01-26T19:01:06;5.00;99.90
22065;DHT22;11197;53.110;8.468;2023-01-26T19:03:38;5.00;99.90
22065;DHT22;11197;53.110;8.468;2023-01-26T19:06:07;5.00;99.90
22065;DHT22;11197;53.110;8.468;2023-01-26T19:08:33;4.90;99.90
22065;DHT22;11197;53.110;8.468;2023-01-26T19:11:06;4.90;99.90
22065;DHT22;11197;53.110;8.468;2023-01-26T19:13:33;4.90;99.90
22065;DHT22;11197;53.110;8.468;2023-01-26T19:16:00;4.90;99.90